sensor_id;sensor_type;location;lat;lon;timestamp;P1;durP1;ratioP1;P2;durP2;ratioP2
42478;SDS011;28110;47.080;9.476;2022-08-19T00:01:20;18.47;;;11.83;;
42478;SDS011;28110;47.080;9.476;2022-08-19T00:03:46;16.17;;;12.68;;
42478;SDS011;28110;47.080;9.476;2022-08-19T00:06:13;17.45;;;13.40;;
42478;SDS011;28110;47.080;9.476;2022-08-19T00:08:39;15.48;;;13.20;;
42478;SDS011;28110;47.080;9.476;2022-08-19T00:11:05;22.57;;;15.87;;
42478;SDS011;28110;47.080;9.476;2022-08-19T00:13:31;24.00;;;17.20;;
42478;SDS011;28110;47.080;9.476;2022-08-19T00:15:56;21.63;;;16.73;;
42478;SDS011;28110;47.080;9.476;2022-08-19T00:18:23;22.20;;;16.88;;
42478;SDS011;28110;47.080;9.476;2022-08-19T00:20:49;18.00;;;15.30;;
42478;SDS011;28110;47.080;9.476;2022-08-19T00:23:14;16.27;;;13.40;;
42478;SDS011;28110;47.080;9.476;2022-08-19T00:25:40;16.00;;;13.02;;
42478;SDS011;28110;47.080;9.476;2022-08-19T00:28:06;16.03;;;13.40;;
42478;SDS011;28110;47.080;9.476;2022-08-19T00:30:32;16.38;;;13.40;;
42478;SDS011;28110;47.080;9.476;2022-08-19T00:32:57;15.40;;;13.03;;
42478;SDS011;28110;47.080;9.476;2022-08-19T00:35:24;14.48;;;12.63;;
42478;SDS011;28110;47.080;9.476;2022-08-19T00:37:52;16.92;;;13.57;;
42478;SDS011;28110;47.080;9.476;2022-08-19T00:40:17;15.57;;;13.50;;
42478;SDS011;28110;47.080;9.476;2022-08-19T00:42:44;17.30;;;14.18;;
42478;SDS011;28110;47.080;9.476;2022-08-19T00:45:17;17.52;;;13.40;;
42478;SDS011;28110;47.080;9.476;2022-08-19T00:47:45;16.00;;;14.03;;
42478;SDS011;28110;47.080;9.476;2022-08-19T00:50:12;16.58;;;12.10;;
42478;SDS011;28110;47.080;9.476;2022-08-19T00:52:41;17.88;;;12.63;;
42478;SDS011;28110;47.080;9.476;2022-08-19T00:55:10;16.85;;;12.35;;
42478;SDS011;28110;47.080;9.476;2022-08-19T00:57:41;13.75;;;11.55;;
42478;SDS011;28110;47.080;9.476;2022-08-19T01:00:10;13.27;;;11.83;;
42478;SDS011;28110;47.080;9.476;2022-08-19T01:02:39;13.30;;;11.18;;
42478;SDS011;28110;47.080;9.476;2022-08-19T01:05:07;14.45;;;11.57;;
42478;SDS011;28110;47.080;9.476;2022-08-19T01:07:37;14.05;;;10.75;;
42478;SDS011;28110;47.080;9.476;2022-08-19T01:10:06;12.73;;;10.75;;
42478;SDS011;28110;47.080;9.476;2022-08-19T01:12:34;13.13;;;10.40;;
42478;SDS011;28110;47.080;9.476;2022-08-19T01:15:00;11.48;;;9.13;;
42478;SDS011;28110;47.080;9.476;2022-08-19T01:17:26;10.73;;;7.93;;
42478;SDS011;28110;47.080;9.476;2022-08-19T01:19:52;13.03;;;9.57;;
42478;SDS011;28110;47.080;9.476;2022-08-19T01:24:52;10.77;;;8.70;;
42478;SDS011;28110;47.080;9.476;2022-08-19T01:27:18;11.67;;;8.83;;
42478;SDS011;28110;47.080;9.476;2022-08-19T01:29:44;9.53;;;7.83;;
42478;SDS011;28110;47.080;9.476;2022-08-19T01:32:14;8.57;;;5.85;;
42478;SDS011;28110;47.080;9.476;2022-08-19T01:34:41;5.90;;;4.95;;
42478;SDS011;28110;47.080;9.476;2022-08-19T01:37:07;9.90;;;6.70;;
42478;SDS011;28110;47.080;9.476;2022-08-19T01:39:36;10.05;;;7.20;;
42478;SDS011;28110;47.080;9.476;2022-08-19T01:42:03;8.95;;;7.00;;
42478;SDS011;28110;47.080;9.476;2022-08-19T01:44:30;6.80;;;5.43;;
42478;SDS011;28110;47.080;9.476;2022-08-19T01:46:55;8.57;;;5.27;;
42478;SDS011;28110;47.080;9.476;2022-08-19T01:49:21;7.63;;;5.30;;
42478;SDS011;28110;47.080;9.476;2022-08-19T01:51:49;8.20;;;5.85;;
42478;SDS011;28110;47.080;9.476;2022-08-19T01:54:16;8.13;;;5.95;;
42478;SDS011;28110;47.080;9.476;2022-08-19T01:56:43;5.25;;;4.45;;
42478;SDS011;28110;47.080;9.476;2022-08-19T01:59:10;4.93;;;4.27;;
42478;SDS011;28110;47.080;9.476;2022-08-19T02:01:42;8.70;;;4.63;;
42478;SDS011;28110;47.080;9.476;2022-08-19T02:04:08;6.35;;;4.95;;
42478;SDS011;28110;47.080;9.476;2022-08-19T02:06:34;7.37;;;5.80;;
42478;SDS011;28110;47.080;9.476;2022-08-19T02:09:00;6.15;;;5.40;;
42478;SDS011;28110;47.080;9.476;2022-08-19T02:11:28;7.10;;;4.07;;
42478;SDS011;28110;47.080;9.476;2022-08-19T02:13:59;4.25;;;3.47;;
42478;SDS011;28110;47.080;9.476;2022-08-19T02:16:27;5.23;;;3.60;;
42478;SDS011;28110;47.080;9.476;2022-08-19T02:18:53;5.53;;;3.40;;
42478;SDS011;28110;47.080;9.476;2022-08-19T02:21:21;4.30;;;2.80;;
42478;SDS011;28110;47.080;9.476;2022-08-19T02:23:48;4.00;;;3.58;;
42478;SDS011;28110;47.080;9.476;2022-08-19T02:26:15;9.68;;;3.67;;
42478;SDS011;28110;47.080;9.476;2022-08-19T02:28:41;5.37;;;4.10;;
42478;SDS011;28110;47.080;9.476;2022-08-19T02:31:18;5.38;;;4.18;;
42478;SDS011;28110;47.080;9.476;2022-08-19T02:33:46;8.45;;;5.57;;
42478;SDS011;28110;47.080;9.476;2022-08-19T02:36:13;9.07;;;6.43;;
42478;SDS011;28110;47.080;9.476;2022-08-19T02:38:40;13.02;;;7.22;;
42478;SDS011;28110;47.080;9.476;2022-08-19T02:41:17;8.70;;;6.63;;
42478;SDS011;28110;47.080;9.476;2022-08-19T02:43:45;13.55;;;7.88;;
42478;SDS011;28110;47.080;9.476;2022-08-19T02:46:15;9.05;;;7.50;;
42478;SDS011;28110;47.080;9.476;2022-08-19T02:48:46;11.27;;;8.70;;
42478;SDS011;28110;47.080;9.476;2022-08-19T02:51:20;9.13;;;7.18;;
42478;SDS011;28110;47.080;9.476;2022-08-19T02:53:51;10.43;;;7.97;;
42478;SDS011;28110;47.080;9.476;2022-08-19T02:56:18;9.65;;;7.90;;
42478;SDS011;28110;47.080;9.476;2022-08-19T02:58:44;14.38;;;8.68;;
42478;SDS011;28110;47.080;9.476;2022-08-19T03:01:11;13.10;;;8.85;;
42478;SDS011;28110;47.080;9.476;2022-08-19T03:03:44;11.23;;;8.35;;
42478;SDS011;28110;47.080;9.476;2022-08-19T03:06:11;11.80;;;9.40;;
42478;SDS011;28110;47.080;9.476;2022-08-19T03:08:38;12.73;;;9.05;;
42478;SDS011;28110;47.080;9.476;2022-08-19T03:11:05;11.63;;;9.10;;
42478;SDS011;28110;47.080;9.476;2022-08-19T03:13:36;14.07;;;10.55;;
42478;SDS011;28110;47.080;9.476;2022-08-19T03:16:04;12.93;;;10.80;;
42478;SDS011;28110;47.080;9.476;2022-08-19T03:18:30;16.93;;;11.33;;
42478;SDS011;28110;47.080;9.476;2022-08-19T03:20:56;16.73;;;11.20;;
42478;SDS011;28110;47.080;9.476;2022-08-19T03:23:22;16.17;;;12.00;;
42478;SDS011;28110;47.080;9.476;2022-08-19T03:25:49;14.73;;;11.63;;
42478;SDS011;28110;47.080;9.476;2022-08-19T03:28:16;19.13;;;12.80;;
42478;SDS011;28110;47.080;9.476;2022-08-19T03:30:42;15.52;;;12.35;;
42478;SDS011;28110;47.080;9.476;2022-08-19T03:33:21;16.70;;;12.33;;
42478;SDS011;28110;47.080;9.476;2022-08-19T03:35:46;15.75;;;11.30;;
42478;SDS011;28110;47.080;9.476;2022-08-19T03:38:12;11.77;;;9.17;;
42478;SDS011;28110;47.080;9.476;2022-08-19T03:40:38;14.18;;;10.32;;
42478;SDS011;28110;47.080;9.476;2022-08-19T03:43:03;16.53;;;11.60;;
42478;SDS011;28110;47.080;9.476;2022-08-19T03:45:29;18.53;;;11.17;;
42478;SDS011;28110;47.080;9.476;2022-08-19T03:47:54;17.30;;;11.97;;
42478;SDS011;28110;47.080;9.476;2022-08-19T03:50:20;15.02;;;11.40;;
42478;SDS011;28110;47.080;9.476;2022-08-19T03:52:49;11.37;;;9.87;;
42478;SDS011;28110;47.080;9.476;2022-08-19T03:55:16;12.80;;;10.82;;
42478;SDS011;28110;47.080;9.476;2022-08-19T03:57:42;12.98;;;10.30;;
42478;SDS011;28110;47.080;9.476;2022-08-19T04:00:08;11.93;;;9.67;;
42478;SDS011;28110;47.080;9.476;2022-08-19T04:02:34;14.25;;;11.43;;
42478;SDS011;28110;47.080;9.476;2022-08-19T04:04:59;18.97;;;11.77;;
42478;SDS011;28110;47.080;9.476;2022-08-19T04:07:25;15.88;;;12.43;;
42478;SDS011;28110;47.080;9.476;2022-08-19T04:09:51;13.47;;;10.60;;
42478;SDS011;28110;47.080;9.476;2022-08-19T04:12:16;16.53;;;12.03;;
42478;SDS011;28110;47.080;9.476;2022-08-19T04:14:42;16.00;;;13.13;;
42478;SDS011;28110;47.080;9.476;2022-08-19T04:17:08;15.27;;;12.70;;
42478;SDS011;28110;47.080;9.476;2022-08-19T04:19:34;12.70;;;10.68;;
42478;SDS011;28110;47.080;9.476;2022-08-19T04:22:00;15.77;;;11.80;;
42478;SDS011;28110;47.080;9.476;2022-08-19T04:24:27;14.80;;;11.63;;
42478;SDS011;28110;47.080;9.476;2022-08-19T04:26:53;13.52;;;10.95;;
42478;SDS011;28110;47.080;9.476;2022-08-19T04:29:23;16.63;;;11.98;;
42478;SDS011;28110;47.080;9.476;2022-08-19T04:31:52;15.10;;;11.40;;
42478;SDS011;28110;47.080;9.476;2022-08-19T04:34:20;12.03;;;9.83;;
42478;SDS011;28110;47.080;9.476;2022-08-19T04:36:47;15.43;;;11.80;;
42478;SDS011;28110;47.080;9.476;2022-08-19T04:39:16;17.77;;;13.55;;
42478;SDS011;28110;47.080;9.476;2022-08-19T04:41:44;16.15;;;13.25;;
42478;SDS011;28110;47.080;9.476;2022-08-19T04:44:30;16.00;;;12.18;;
42478;SDS011;28110;47.080;9.476;2022-08-19T04:46:56;15.30;;;11.57;;
42478;SDS011;28110;47.080;9.476;2022-08-19T04:49:22;15.27;;;12.05;;
42478;SDS011;28110;47.080;9.476;2022-08-19T04:51:48;16.93;;;12.20;;
42478;SDS011;28110;47.080;9.476;2022-08-19T04:54:15;19.00;;;11.82;;
42478;SDS011;28110;47.080;9.476;2022-08-19T04:56:45;15.90;;;10.95;;
42478;SDS011;28110;47.080;9.476;2022-08-19T04:59:10;15.67;;;11.97;;
42478;SDS011;28110;47.080;9.476;2022-08-19T05:01:37;16.85;;;12.80;;
42478;SDS011;28110;47.080;9.476;2022-08-19T05:04:03;18.48;;;12.30;;
42478;SDS011;28110;47.080;9.476;2022-08-19T05:06:30;15.13;;;11.57;;
42478;SDS011;28110;47.080;9.476;2022-08-19T05:08:58;13.43;;;10.00;;
42478;SDS011;28110;47.080;9.476;2022-08-19T05:11:26;11.63;;;9.55;;
42478;SDS011;28110;47.080;9.476;2022-08-19T05:13:54;12.18;;;9.48;;
42478;SDS011;28110;47.080;9.476;2022-08-19T05:16:21;12.68;;;9.02;;
42478;SDS011;28110;47.080;9.476;2022-08-19T05:18:48;10.40;;;8.63;;
42478;SDS011;28110;47.080;9.476;2022-08-19T05:21:33;11.70;;;9.25;;
42478;SDS011;28110;47.080;9.476;2022-08-19T05:24:18;13.45;;;9.95;;
42478;SDS011;28110;47.080;9.476;2022-08-19T05:26:46;12.68;;;10.25;;
42478;SDS011;28110;47.080;9.476;2022-08-19T05:29:15;11.57;;;9.20;;
42478;SDS011;28110;47.080;9.476;2022-08-19T05:31:44;11.23;;;8.17;;
42478;SDS011;28110;47.080;9.476;2022-08-19T05:34:10;10.70;;;8.27;;
42478;SDS011;28110;47.080;9.476;2022-08-19T05:36:37;9.80;;;7.45;;
42478;SDS011;28110;47.080;9.476;2022-08-19T05:39:10;10.82;;;8.52;;
42478;SDS011;28110;47.080;9.476;2022-08-19T05:41:41;11.25;;;8.32;;
42478;SDS011;28110;47.080;9.476;2022-08-19T05:44:08;10.07;;;6.90;;
42478;SDS011;28110;47.080;9.476;2022-08-19T05:46:35;6.30;;;5.20;;
42478;SDS011;28110;47.080;9.476;2022-08-19T05:49:03;9.35;;;5.85;;
42478;SDS011;28110;47.080;9.476;2022-08-19T05:51:33;6.63;;;5.32;;
42478;SDS011;28110;47.080;9.476;2022-08-19T05:54:01;7.35;;;6.00;;
42478;SDS011;28110;47.080;9.476;2022-08-19T05:56:27;9.37;;;6.27;;
42478;SDS011;28110;47.080;9.476;2022-08-19T05:58:55;9.23;;;6.95;;
42478;SDS011;28110;47.080;9.476;2022-08-19T06:01:23;8.52;;;5.85;;
42478;SDS011;28110;47.080;9.476;2022-08-19T06:03:49;7.82;;;6.47;;
42478;SDS011;28110;47.080;9.476;2022-08-19T06:06:16;8.10;;;6.43;;
42478;SDS011;28110;47.080;9.476;2022-08-19T06:08:41;9.00;;;6.30;;
42478;SDS011;28110;47.080;9.476;2022-08-19T06:11:22;8.63;;;5.85;;
42478;SDS011;28110;47.080;9.476;2022-08-19T06:14:00;6.90;;;5.40;;
42478;SDS011;28110;47.080;9.476;2022-08-19T06:16:30;8.25;;;6.88;;
42478;SDS011;28110;47.080;9.476;2022-08-19T06:18:57;7.85;;;6.30;;
42478;SDS011;28110;47.080;9.476;2022-08-19T06:21:26;8.20;;;5.90;;
42478;SDS011;28110;47.080;9.476;2022-08-19T06:23:53;8.52;;;5.22;;
42478;SDS011;28110;47.080;9.476;2022-08-19T06:26:20;7.95;;;4.80;;
42478;SDS011;28110;47.080;9.476;2022-08-19T06:28:47;6.25;;;5.00;;
42478;SDS011;28110;47.080;9.476;2022-08-19T06:31:24;13.10;;;7.15;;
42478;SDS011;28110;47.080;9.476;2022-08-19T06:33:51;10.27;;;7.50;;
42478;SDS011;28110;47.080;9.476;2022-08-19T06:36:17;7.75;;;6.15;;
42478;SDS011;28110;47.080;9.476;2022-08-19T06:38:50;9.80;;;6.13;;
42478;SDS011;28110;47.080;9.476;2022-08-19T06:41:16;7.47;;;5.70;;
42478;SDS011;28110;47.080;9.476;2022-08-19T06:43:41;7.83;;;5.33;;
42478;SDS011;28110;47.080;9.476;2022-08-19T06:46:11;9.68;;;6.18;;
42478;SDS011;28110;47.080;9.476;2022-08-19T06:48:38;9.63;;;6.07;;
42478;SDS011;28110;47.080;9.476;2022-08-19T06:51:04;10.00;;;6.63;;
42478;SDS011;28110;47.080;9.476;2022-08-19T06:53:30;9.05;;;5.88;;
42478;SDS011;28110;47.080;9.476;2022-08-19T06:55:56;8.02;;;5.68;;
42478;SDS011;28110;47.080;9.476;2022-08-19T06:58:30;8.20;;;5.50;;
42478;SDS011;28110;47.080;9.476;2022-08-19T07:00:58;8.10;;;5.72;;
42478;SDS011;28110;47.080;9.476;2022-08-19T07:03:25;7.68;;;5.53;;
42478;SDS011;28110;47.080;9.476;2022-08-19T07:05:53;8.05;;;5.45;;
42478;SDS011;28110;47.080;9.476;2022-08-19T07:08:18;7.50;;;5.23;;
42478;SDS011;28110;47.080;9.476;2022-08-19T07:10:44;7.83;;;4.13;;
42478;SDS011;28110;47.080;9.476;2022-08-19T07:13:10;6.90;;;4.80;;
42478;SDS011;28110;47.080;9.476;2022-08-19T07:15:36;5.38;;;4.38;;
42478;SDS011;28110;47.080;9.476;2022-08-19T07:18:02;6.05;;;3.75;;
42478;SDS011;28110;47.080;9.476;2022-08-19T07:20:28;7.60;;;3.50;;
42478;SDS011;28110;47.080;9.476;2022-08-19T07:22:53;9.63;;;3.90;;
42478;SDS011;28110;47.080;9.476;2022-08-19T07:25:19;6.35;;;4.13;;
42478;SDS011;28110;47.080;9.476;2022-08-19T07:27:48;5.27;;;3.93;;
42478;SDS011;28110;47.080;9.476;2022-08-19T07:30:14;5.32;;;3.92;;
42478;SDS011;28110;47.080;9.476;2022-08-19T07:32:40;7.03;;;3.75;;
42478;SDS011;28110;47.080;9.476;2022-08-19T07:35:07;4.33;;;3.50;;
42478;SDS011;28110;47.080;9.476;2022-08-19T07:37:34;5.53;;;3.70;;
42478;SDS011;28110;47.080;9.476;2022-08-19T07:40:02;5.65;;;3.70;;
42478;SDS011;28110;47.080;9.476;2022-08-19T07:42:29;5.80;;;3.67;;
42478;SDS011;28110;47.080;9.476;2022-08-19T07:44:55;5.70;;;4.07;;
42478;SDS011;28110;47.080;9.476;2022-08-19T07:47:21;5.50;;;3.45;;
42478;SDS011;28110;47.080;9.476;2022-08-19T07:49:47;5.32;;;3.67;;
42478;SDS011;28110;47.080;9.476;2022-08-19T07:52:13;4.63;;;3.83;;
42478;SDS011;28110;47.080;9.476;2022-08-19T07:54:39;6.10;;;3.90;;
42478;SDS011;28110;47.080;9.476;2022-08-19T07:57:06;5.07;;;3.22;;
42478;SDS011;28110;47.080;9.476;2022-08-19T07:59:32;4.33;;;3.17;;
42478;SDS011;28110;47.080;9.476;2022-08-19T08:01:58;4.63;;;3.30;;
42478;SDS011;28110;47.080;9.476;2022-08-19T08:04:25;5.05;;;3.08;;
42478;SDS011;28110;47.080;9.476;2022-08-19T08:07:10;5.38;;;4.03;;
42478;SDS011;28110;47.080;9.476;2022-08-19T08:09:54;5.50;;;3.47;;
42478;SDS011;28110;47.080;9.476;2022-08-19T08:12:24;4.18;;;3.13;;
42478;SDS011;28110;47.080;9.476;2022-08-19T08:14:54;5.25;;;3.50;;
42478;SDS011;28110;47.080;9.476;2022-08-19T08:17:23;4.23;;;3.17;;
42478;SDS011;28110;47.080;9.476;2022-08-19T08:19:50;5.55;;;3.50;;
42478;SDS011;28110;47.080;9.476;2022-08-19T08:22:17;5.47;;;3.33;;
42478;SDS011;28110;47.080;9.476;2022-08-19T08:25:04;4.75;;;3.30;;
42478;SDS011;28110;47.080;9.476;2022-08-19T08:27:34;5.50;;;3.63;;
42478;SDS011;28110;47.080;9.476;2022-08-19T08:30:02;5.17;;;4.00;;
42478;SDS011;28110;47.080;9.476;2022-08-19T08:32:29;5.25;;;3.90;;
42478;SDS011;28110;47.080;9.476;2022-08-19T08:34:55;5.30;;;4.35;;
42478;SDS011;28110;47.080;9.476;2022-08-19T08:37:21;7.40;;;4.60;;
42478;SDS011;28110;47.080;9.476;2022-08-19T08:39:47;5.20;;;3.90;;
42478;SDS011;28110;47.080;9.476;2022-08-19T08:42:15;5.90;;;4.00;;
42478;SDS011;28110;47.080;9.476;2022-08-19T08:44:58;7.47;;;3.83;;
42478;SDS011;28110;47.080;9.476;2022-08-19T08:47:27;6.70;;;4.72;;
42478;SDS011;28110;47.080;9.476;2022-08-19T08:50:03;5.80;;;4.13;;
42478;SDS011;28110;47.080;9.476;2022-08-19T08:52:33;7.30;;;4.35;;
42478;SDS011;28110;47.080;9.476;2022-08-19T08:55:07;5.65;;;3.90;;
42478;SDS011;28110;47.080;9.476;2022-08-19T09:00:05;5.75;;;4.60;;
42478;SDS011;28110;47.080;9.476;2022-08-19T09:02:37;5.85;;;4.25;;
42478;SDS011;28110;47.080;9.476;2022-08-19T09:05:03;6.60;;;4.18;;
42478;SDS011;28110;47.080;9.476;2022-08-19T09:10:21;6.18;;;4.53;;
42478;SDS011;28110;47.080;9.476;2022-08-19T09:15:37;6.43;;;4.60;;
42478;SDS011;28110;47.080;9.476;2022-08-19T09:18:07;10.07;;;6.43;;
42478;SDS011;28110;47.080;9.476;2022-08-19T09:20:34;12.35;;;6.53;;
42478;SDS011;28110;47.080;9.476;2022-08-19T09:22:59;7.97;;;6.00;;
42478;SDS011;28110;47.080;9.476;2022-08-19T09:25:25;7.93;;;5.73;;
42478;SDS011;28110;47.080;9.476;2022-08-19T09:27:51;7.57;;;5.75;;
42478;SDS011;28110;47.080;9.476;2022-08-19T09:30:23;6.72;;;5.18;;
42478;SDS011;28110;47.080;9.476;2022-08-19T09:32:50;8.47;;;5.73;;
42478;SDS011;28110;47.080;9.476;2022-08-19T09:35:20;6.72;;;5.45;;
42478;SDS011;28110;47.080;9.476;2022-08-19T09:37:48;10.05;;;5.40;;
42478;SDS011;28110;47.080;9.476;2022-08-19T09:40:15;5.45;;;4.55;;
42478;SDS011;28110;47.080;9.476;2022-08-19T09:42:42;7.13;;;4.65;;
42478;SDS011;28110;47.080;9.476;2022-08-19T09:45:12;6.17;;;4.40;;
42478;SDS011;28110;47.080;9.476;2022-08-19T09:47:42;9.05;;;4.70;;
42478;SDS011;28110;47.080;9.476;2022-08-19T09:50:09;6.57;;;5.43;;
42478;SDS011;28110;47.080;9.476;2022-08-19T09:52:36;7.38;;;5.32;;
42478;SDS011;28110;47.080;9.476;2022-08-19T09:55:06;5.95;;;4.38;;
42478;SDS011;28110;47.080;9.476;2022-08-19T09:57:33;5.57;;;4.20;;
42478;SDS011;28110;47.080;9.476;2022-08-19T09:59:58;5.25;;;4.22;;
42478;SDS011;28110;47.080;9.476;2022-08-19T10:02:24;7.30;;;4.87;;
42478;SDS011;28110;47.080;9.476;2022-08-19T10:04:50;7.05;;;4.90;;
42478;SDS011;28110;47.080;9.476;2022-08-19T10:07:34;6.87;;;4.93;;
42478;SDS011;28110;47.080;9.476;2022-08-19T10:10:00;9.13;;;5.90;;
42478;SDS011;28110;47.080;9.476;2022-08-19T10:12:27;9.07;;;6.00;;
42478;SDS011;28110;47.080;9.476;2022-08-19T10:14:53;11.20;;;6.07;;
42478;SDS011;28110;47.080;9.476;2022-08-19T10:17:19;6.22;;;5.18;;
42478;SDS011;28110;47.080;9.476;2022-08-19T10:19:45;7.70;;;5.90;;
42478;SDS011;28110;47.080;9.476;2022-08-19T10:22:12;7.05;;;5.85;;
42478;SDS011;28110;47.080;9.476;2022-08-19T10:24:38;6.87;;;5.33;;
42478;SDS011;28110;47.080;9.476;2022-08-19T10:27:04;7.50;;;5.82;;
42478;SDS011;28110;47.080;9.476;2022-08-19T10:29:30;8.73;;;6.32;;
42478;SDS011;28110;47.080;9.476;2022-08-19T10:31:57;7.43;;;5.13;;
42478;SDS011;28110;47.080;9.476;2022-08-19T10:34:25;7.05;;;4.82;;
42478;SDS011;28110;47.080;9.476;2022-08-19T10:36:51;9.30;;;5.80;;
42478;SDS011;28110;47.080;9.476;2022-08-19T10:39:17;7.67;;;4.13;;
42478;SDS011;28110;47.080;9.476;2022-08-19T10:41:42;3.97;;;2.58;;
42478;SDS011;28110;47.080;9.476;2022-08-19T10:44:10;4.10;;;2.40;;
42478;SDS011;28110;47.080;9.476;2022-08-19T10:46:41;2.25;;;2.05;;
42478;SDS011;28110;47.080;9.476;2022-08-19T10:49:08;3.30;;;1.75;;
42478;SDS011;28110;47.080;9.476;2022-08-19T10:51:35;2.08;;;1.88;;
42478;SDS011;28110;47.080;9.476;2022-08-19T10:54:19;4.43;;;1.93;;
42478;SDS011;28110;47.080;9.476;2022-08-19T10:56:45;3.15;;;2.03;;
42478;SDS011;28110;47.080;9.476;2022-08-19T10:59:23;3.75;;;1.83;;
42478;SDS011;28110;47.080;9.476;2022-08-19T11:01:52;3.28;;;2.10;;
42478;SDS011;28110;47.080;9.476;2022-08-19T11:04:23;3.10;;;2.10;;
42478;SDS011;28110;47.080;9.476;2022-08-19T11:06:48;4.30;;;2.53;;
42478;SDS011;28110;47.080;9.476;2022-08-19T11:09:15;3.40;;;2.70;;
42478;SDS011;28110;47.080;9.476;2022-08-19T11:11:44;6.90;;;2.53;;
42478;SDS011;28110;47.080;9.476;2022-08-19T11:14:11;3.53;;;2.70;;
42478;SDS011;28110;47.080;9.476;2022-08-19T11:16:39;3.78;;;2.83;;
42478;SDS011;28110;47.080;9.476;2022-08-19T11:19:06;5.27;;;3.10;;
42478;SDS011;28110;47.080;9.476;2022-08-19T11:21:35;3.63;;;2.92;;
42478;SDS011;28110;47.080;9.476;2022-08-19T11:24:04;5.90;;;3.03;;
42478;SDS011;28110;47.080;9.476;2022-08-19T11:26:43;4.00;;;2.75;;
42478;SDS011;28110;47.080;9.476;2022-08-19T11:29:10;4.63;;;3.25;;
42478;SDS011;28110;47.080;9.476;2022-08-19T11:31:38;4.40;;;3.20;;
42478;SDS011;28110;47.080;9.476;2022-08-19T11:34:06;6.18;;;3.78;;
42478;SDS011;28110;47.080;9.476;2022-08-19T11:36:36;5.25;;;3.75;;
42478;SDS011;28110;47.080;9.476;2022-08-19T11:39:04;5.72;;;4.18;;
42478;SDS011;28110;47.080;9.476;2022-08-19T11:41:30;7.65;;;4.32;;
42478;SDS011;28110;47.080;9.476;2022-08-19T11:43:56;5.67;;;3.80;;
42478;SDS011;28110;47.080;9.476;2022-08-19T11:46:23;6.60;;;3.90;;
42478;SDS011;28110;47.080;9.476;2022-08-19T11:48:50;6.45;;;4.20;;
42478;SDS011;28110;47.080;9.476;2022-08-19T11:51:20;7.00;;;4.43;;
42478;SDS011;28110;47.080;9.476;2022-08-19T11:53:47;6.45;;;4.63;;
42478;SDS011;28110;47.080;9.476;2022-08-19T11:56:14;8.80;;;5.30;;
42478;SDS011;28110;47.080;9.476;2022-08-19T11:58:40;8.20;;;4.60;;
42478;SDS011;28110;47.080;9.476;2022-08-19T12:01:09;7.47;;;4.80;;
42478;SDS011;28110;47.080;9.476;2022-08-19T12:03:36;7.88;;;4.90;;
42478;SDS011;28110;47.080;9.476;2022-08-19T12:06:05;7.47;;;4.73;;
42478;SDS011;28110;47.080;9.476;2022-08-19T12:08:33;9.13;;;4.40;;
42478;SDS011;28110;47.080;9.476;2022-08-19T12:10:59;5.75;;;4.28;;
42478;SDS011;28110;47.080;9.476;2022-08-19T12:13:28;11.25;;;4.97;;
42478;SDS011;28110;47.080;9.476;2022-08-19T12:15:55;8.30;;;4.23;;
42478;SDS011;28110;47.080;9.476;2022-08-19T12:18:20;6.80;;;4.30;;
42478;SDS011;28110;47.080;9.476;2022-08-19T12:20:46;7.23;;;4.87;;
42478;SDS011;28110;47.080;9.476;2022-08-19T12:23:12;8.05;;;4.65;;
42478;SDS011;28110;47.080;9.476;2022-08-19T12:25:43;6.72;;;4.60;;
42478;SDS011;28110;47.080;9.476;2022-08-19T12:28:14;11.30;;;4.82;;
42478;SDS011;28110;47.080;9.476;2022-08-19T12:30:49;19.13;;;5.73;;
42478;SDS011;28110;47.080;9.476;2022-08-19T12:33:16;9.05;;;4.90;;
42478;SDS011;28110;47.080;9.476;2022-08-19T12:35:43;7.63;;;5.00;;
42478;SDS011;28110;47.080;9.476;2022-08-19T12:38:11;7.40;;;5.25;;
42478;SDS011;28110;47.080;9.476;2022-08-19T12:40:38;8.40;;;5.03;;
42478;SDS011;28110;47.080;9.476;2022-08-19T12:43:05;8.97;;;4.27;;
42478;SDS011;28110;47.080;9.476;2022-08-19T12:45:31;10.43;;;4.57;;
42478;SDS011;28110;47.080;9.476;2022-08-19T12:47:56;8.77;;;4.93;;
42478;SDS011;28110;47.080;9.476;2022-08-19T12:50:22;8.80;;;4.77;;
42478;SDS011;28110;47.080;9.476;2022-08-19T12:52:48;10.80;;;4.95;;
42478;SDS011;28110;47.080;9.476;2022-08-19T12:55:14;13.83;;;4.63;;
42478;SDS011;28110;47.080;9.476;2022-08-19T12:57:39;12.93;;;5.75;;
42478;SDS011;28110;47.080;9.476;2022-08-19T13:00:07;9.40;;;4.87;;
42478;SDS011;28110;47.080;9.476;2022-08-19T13:02:36;6.78;;;4.30;;
42478;SDS011;28110;47.080;9.476;2022-08-19T13:05:03;14.90;;;4.88;;
42478;SDS011;28110;47.080;9.476;2022-08-19T13:07:31;9.80;;;4.95;;
42478;SDS011;28110;47.080;9.476;2022-08-19T13:09:57;6.10;;;5.07;;
42478;SDS011;28110;47.080;9.476;2022-08-19T13:12:22;6.57;;;4.70;;
42478;SDS011;28110;47.080;9.476;2022-08-19T13:14:51;7.95;;;4.63;;
42478;SDS011;28110;47.080;9.476;2022-08-19T13:17:20;11.05;;;4.43;;
42478;SDS011;28110;47.080;9.476;2022-08-19T13:19:45;9.85;;;4.55;;
42478;SDS011;28110;47.080;9.476;2022-08-19T13:22:11;10.17;;;4.40;;
42478;SDS011;28110;47.080;9.476;2022-08-19T13:24:37;6.20;;;4.32;;
42478;SDS011;28110;47.080;9.476;2022-08-19T13:27:04;9.20;;;4.97;;
42478;SDS011;28110;47.080;9.476;2022-08-19T13:29:30;11.57;;;4.43;;
42478;SDS011;28110;47.080;9.476;2022-08-19T13:32:14;8.48;;;5.05;;
42478;SDS011;28110;47.080;9.476;2022-08-19T13:34:58;6.53;;;3.85;;
42478;SDS011;28110;47.080;9.476;2022-08-19T13:37:24;7.23;;;3.90;;
42478;SDS011;28110;47.080;9.476;2022-08-19T13:40:09;8.35;;;3.83;;
42478;SDS011;28110;47.080;9.476;2022-08-19T13:42:37;4.45;;;3.30;;
42478;SDS011;28110;47.080;9.476;2022-08-19T13:45:06;6.25;;;3.80;;
42478;SDS011;28110;47.080;9.476;2022-08-19T13:47:33;4.60;;;3.33;;
42478;SDS011;28110;47.080;9.476;2022-08-19T13:50:11;5.47;;;3.50;;
42478;SDS011;28110;47.080;9.476;2022-08-19T13:52:38;5.32;;;3.08;;
42478;SDS011;28110;47.080;9.476;2022-08-19T13:55:05;5.93;;;4.57;;
42478;SDS011;28110;47.080;9.476;2022-08-19T13:57:31;5.82;;;3.47;;
42478;SDS011;28110;47.080;9.476;2022-08-19T13:59:57;6.73;;;4.27;;
42478;SDS011;28110;47.080;9.476;2022-08-19T14:02:23;6.82;;;3.40;;
42478;SDS011;28110;47.080;9.476;2022-08-19T14:04:48;5.13;;;3.67;;
42478;SDS011;28110;47.080;9.476;2022-08-19T14:07:14;4.72;;;3.50;;
42478;SDS011;28110;47.080;9.476;2022-08-19T14:09:40;6.17;;;4.07;;
42478;SDS011;28110;47.080;9.476;2022-08-19T14:12:05;8.03;;;3.97;;
42478;SDS011;28110;47.080;9.476;2022-08-19T14:14:31;4.45;;;3.47;;
42478;SDS011;28110;47.080;9.476;2022-08-19T14:16:57;4.97;;;3.20;;
42478;SDS011;28110;47.080;9.476;2022-08-19T14:19:23;4.17;;;3.40;;
42478;SDS011;28110;47.080;9.476;2022-08-19T14:21:48;4.87;;;3.13;;
42478;SDS011;28110;47.080;9.476;2022-08-19T14:24:14;4.97;;;3.13;;
42478;SDS011;28110;47.080;9.476;2022-08-19T14:26:39;4.33;;;3.33;;
42478;SDS011;28110;47.080;9.476;2022-08-19T14:29:05;4.87;;;3.70;;
42478;SDS011;28110;47.080;9.476;2022-08-19T14:31:30;5.18;;;3.33;;
42478;SDS011;28110;47.080;9.476;2022-08-19T14:33:56;4.63;;;3.47;;
42478;SDS011;28110;47.080;9.476;2022-08-19T14:36:21;7.40;;;3.70;;
42478;SDS011;28110;47.080;9.476;2022-08-19T14:38:47;5.90;;;3.50;;
42478;SDS011;28110;47.080;9.476;2022-08-19T14:41:22;6.50;;;3.40;;
42478;SDS011;28110;47.080;9.476;2022-08-19T14:43:49;5.17;;;3.90;;
42478;SDS011;28110;47.080;9.476;2022-08-19T14:46:16;5.82;;;3.83;;
42478;SDS011;28110;47.080;9.476;2022-08-19T14:48:45;5.90;;;4.18;;
42478;SDS011;28110;47.080;9.476;2022-08-19T14:51:12;6.80;;;4.75;;
42478;SDS011;28110;47.080;9.476;2022-08-19T14:53:37;6.57;;;5.20;;
42478;SDS011;28110;47.080;9.476;2022-08-19T14:56:07;8.20;;;4.80;;